createdAt,value
2023-06-17T00:01:24.402Z,16.52
2023-06-17T00:03:52.106Z,15.70
2023-06-17T00:06:19.931Z,15.00
2023-06-17T00:08:47.586Z,15.98
2023-06-17T00:11:15.250Z,15.68
2023-06-17T00:13:42.929Z,16.27
2023-06-17T00:16:13.734Z,15.38
2023-06-17T00:18:42.377Z,15.90
2023-06-17T00:21:10.105Z,16.85
2023-06-17T00:23:37.926Z,15.75
2023-06-17T00:26:05.549Z,14.77
2023-06-17T00:28:33.471Z,16.27
2023-06-17T00:31:01.319Z,16.42
2023-06-17T00:33:30.603Z,15.38
2023-06-17T00:35:58.217Z,16.02
2023-06-17T00:38:25.921Z,15.43
2023-06-17T00:40:53.566Z,16.30
2023-06-17T00:43:21.212Z,15.80
2023-06-17T00:45:48.913Z,15.43
2023-06-17T00:48:16.852Z,16.13
2023-06-17T00:50:47.219Z,15.77
2023-06-17T00:53:14.998Z,15.95
2023-06-17T00:55:43.552Z,16.10
2023-06-17T00:58:11.364Z,14.75
2023-06-17T01:00:39.035Z,16.40
2023-06-17T01:03:08.729Z,16.35
2023-06-17T01:05:39.655Z,16.10
2023-06-17T01:08:18.017Z,14.75
2023-06-17T01:10:50.438Z,15.57
2023-06-17T01:13:18.758Z,16.08
2023-06-17T01:15:47.276Z,15.15
2023-06-17T01:18:18.912Z,16.73
2023-06-17T01:20:48.216Z,16.08
2023-06-17T01:23:18.052Z,15.98
2023-06-17T01:25:47.118Z,15.48
2023-06-17T01:28:17.674Z,16.17
2023-06-17T01:30:45.868Z,16.35
2023-06-17T01:33:14.488Z,16.05
2023-06-17T01:35:46.853Z,15.50
2023-06-17T01:38:19.964Z,18.15
2023-06-17T01:40:53.443Z,15.18
2023-06-17T01:43:22.816Z,16.77
2023-06-17T01:45:50.837Z,15.32
2023-06-17T01:48:18.580Z,15.98
2023-06-17T01:50:46.220Z,15.10
2023-06-17T01:53:13.897Z,15.70
2023-06-17T01:55:41.547Z,16.33
2023-06-17T01:58:11.468Z,16.40
2023-06-17T02:00:39.127Z,15.73
2023-06-17T02:03:06.899Z,15.68
2023-06-17T02:05:34.669Z,15.13
2023-06-17T02:08:05.820Z,15.43
2023-06-17T02:10:33.902Z,15.52
2023-06-17T02:13:04.392Z,15.95
2023-06-17T02:15:33.438Z,15.45
2023-06-17T02:18:01.701Z,15.38
2023-06-17T02:20:29.386Z,15.30
2023-06-17T02:22:57.018Z,16.05
2023-06-17T02:25:24.666Z,15.32
2023-06-17T02:27:52.699Z,15.85
2023-06-17T02:30:20.676Z,15.68
2023-06-17T02:32:49.898Z,15.60
2023-06-17T02:35:17.669Z,16.02
2023-06-17T02:37:45.586Z,15.27
2023-06-17T02:40:13.273Z,15.93
2023-06-17T02:42:41.264Z,16.10
2023-06-17T02:45:12.284Z,15.77
2023-06-17T02:47:40.149Z,15.43
2023-06-17T02:50:09.969Z,15.55
2023-06-17T02:52:38.518Z,15.45
2023-06-17T02:55:07.554Z,16.15
2023-06-17T02:57:36.736Z,15.73
2023-06-17T03:00:07.560Z,16.70
2023-06-17T03:02:35.276Z,15.77
2023-06-17T03:05:04.393Z,16.23
2023-06-17T03:07:36.997Z,15.82
2023-06-17T03:10:04.806Z,15.77
2023-06-17T03:12:32.478Z,16.98
2023-06-17T03:15:00.315Z,16.63
2023-06-17T03:17:28.547Z,16.20
2023-06-17T03:19:57.901Z,16.45
2023-06-17T03:22:25.596Z,15.05
2023-06-17T03:24:54.578Z,15.85
2023-06-17T03:27:22.883Z,15.70
2023-06-17T03:29:51.137Z,15.70
2023-06-17T03:32:18.796Z,15.60
2023-06-17T03:34:47.058Z,15.82
2023-06-17T03:37:14.761Z,16.08
2023-06-17T03:39:43.457Z,16.38
2023-06-17T03:42:13.174Z,16.63
2023-06-17T03:44:40.818Z,15.75
2023-06-17T03:47:08.850Z,15.88
2023-06-17T03:49:36.600Z,15.65
2023-06-17T03:52:04.395Z,15.77
2023-06-17T03:54:32.020Z,15.75
2023-06-17T03:56:59.673Z,14.73
2023-06-17T03:59:28.680Z,15.45
2023-06-17T04:01:56.348Z,15.13
2023-06-17T04:04:24.077Z,14.98
2023-06-17T04:06:51.748Z,15.43
2023-06-17T04:09:19.383Z,15.57
2023-06-17T04:11:47.042Z,15.20
2023-06-17T04:14:14.679Z,15.30
2023-06-17T04:16:43.845Z,15.52
2023-06-17T04:19:15.333Z,14.48
2023-06-17T04:21:43.071Z,15.98
2023-06-17T04:24:10.855Z,14.65
2023-06-17T04:26:38.604Z,15.10
2023-06-17T04:29:06.307Z,15.63
2023-06-17T04:31:36.649Z,14.50
2023-06-17T04:34:06.477Z,14.77
2023-06-17T04:36:34.151Z,15.68
2023-06-17T04:39:01.802Z,14.80
2023-06-17T04:41:29.446Z,16.40
2023-06-17T04:43:57.103Z,15.43
2023-06-17T04:46:24.822Z,15.30
2023-06-17T04:48:52.996Z,15.57
2023-06-17T04:51:21.984Z,16.45
2023-06-17T04:53:49.608Z,15.73
2023-06-17T04:56:17.615Z,16.17
2023-06-17T04:58:45.229Z,15.25
2023-06-17T05:01:13.322Z,16.00
2023-06-17T05:03:41.091Z,16.08
2023-06-17T05:06:08.804Z,15.50
2023-06-17T05:08:37.819Z,15.18
2023-06-17T05:11:06.097Z,16.02
2023-06-17T05:13:33.758Z,16.00
2023-06-17T05:16:01.395Z,16.25
2023-06-17T05:18:29.029Z,14.57
2023-06-17T05:20:56.716Z,15.18
2023-06-17T05:23:24.352Z,14.93
2023-06-17T05:25:53.340Z,15.50
2023-06-17T05:28:21.754Z,16.48
2023-06-17T05:30:49.436Z,15.00
2023-06-17T05:33:17.112Z,16.23
2023-06-17T05:35:44.781Z,14.95
2023-06-17T05:38:12.425Z,14.93
2023-06-17T05:40:40.088Z,15.80
2023-06-17T05:43:09.093Z,16.38
2023-06-17T05:45:36.768Z,14.80
2023-06-17T05:48:04.785Z,14.88
2023-06-17T05:50:32.445Z,14.63
2023-06-17T05:53:00.128Z,14.57
2023-06-17T05:55:27.802Z,14.75
2023-06-17T05:57:55.522Z,15.35
2023-06-17T06:00:24.686Z,14.63
2023-06-17T06:02:52.419Z,17.50
2023-06-17T06:05:20.283Z,15.40
2023-06-17T06:07:47.940Z,14.68
2023-06-17T06:10:15.626Z,15.10
2023-06-17T06:12:43.270Z,15.18
2023-06-17T06:15:11.103Z,14.88
2023-06-17T06:17:40.163Z,15.27
2023-06-17T06:20:08.922Z,21.98
2023-06-17T06:22:36.587Z,15.35
2023-06-17T06:25:05.356Z,15.38
2023-06-17T06:27:32.979Z,15.25
2023-06-17T06:30:00.739Z,15.20
2023-06-17T06:32:28.465Z,15.60
2023-06-17T06:34:57.483Z,15.68
2023-06-17T06:37:25.131Z,15.38
2023-06-17T06:39:52.790Z,15.02
2023-06-17T06:42:20.428Z,15.05
2023-06-17T06:44:48.070Z,15.55
2023-06-17T06:47:15.743Z,21.20
2023-06-17T06:49:43.408Z,17.38
2023-06-17T06:52:12.587Z,15.60
2023-06-17T06:54:40.256Z,15.88
2023-06-17T06:57:07.933Z,15.15
2023-06-17T06:59:35.593Z,15.95
2023-06-17T07:02:03.279Z,15.50
2023-06-17T07:04:31.479Z,15.82
2023-06-17T07:06:59.164Z,16.15
2023-06-17T07:09:28.145Z,15.70
2023-06-17T07:11:55.782Z,17.33
2023-06-17T07:14:23.453Z,16.60
2023-06-17T07:16:51.098Z,16.20
2023-06-17T07:19:18.837Z,16.05
2023-06-17T07:21:46.466Z,16.77
2023-06-17T07:24:14.103Z,15.95
2023-06-17T07:26:43.068Z,16.73
2023-06-17T07:29:10.778Z,16.20
2023-06-17T07:31:38.444Z,16.40
2023-06-17T07:34:06.108Z,17.27
2023-06-17T07:36:33.905Z,23.35
2023-06-17T07:39:01.600Z,17.35
2023-06-17T07:41:29.259Z,16.25
2023-06-17T07:43:58.252Z,16.58
2023-06-17T07:46:26.493Z,16.98
2023-06-17T07:48:54.224Z,16.73
2023-06-17T07:51:21.861Z,16.42
2023-06-17T07:53:49.504Z,16.27
2023-06-17T07:56:17.203Z,16.70
2023-06-17T07:58:45.646Z,16.48
2023-06-17T08:01:14.679Z,16.98
2023-06-17T08:03:42.415Z,15.93
2023-06-17T08:06:10.410Z,16.88
2023-06-17T08:08:38.054Z,15.73
2023-06-17T08:11:05.714Z,15.85
2023-06-17T08:13:33.334Z,17.17
2023-06-17T08:16:01.027Z,16.15
2023-06-17T08:18:30.048Z,17.13
2023-06-17T08:20:57.756Z,15.52
2023-06-17T08:23:25.429Z,16.05
2023-06-17T08:25:53.081Z,16.50
2023-06-17T08:28:20.756Z,16.77
2023-06-17T08:30:50.402Z,16.67
2023-06-17T08:33:18.138Z,16.13
2023-06-17T08:35:47.131Z,16.42
2023-06-17T08:38:14.830Z,16.88
2023-06-17T08:40:46.069Z,16.88
2023-06-17T08:43:18.699Z,18.80
2023-06-17T08:45:49.569Z,16.55
2023-06-17T08:48:17.572Z,16.80
2023-06-17T08:50:48.387Z,15.75
2023-06-17T08:53:16.303Z,16.15
2023-06-17T08:55:44.539Z,16.83
2023-06-17T08:58:12.388Z,17.40
2023-06-17T09:00:40.058Z,15.93
2023-06-17T09:03:09.356Z,16.83
2023-06-17T09:05:37.293Z,17.05
2023-06-17T09:08:06.663Z,16.27
2023-06-17T09:10:44.242Z,16.20
2023-06-17T09:13:12.041Z,16.70
2023-06-17T09:15:43.611Z,15.80
2023-06-17T09:18:11.336Z,15.50
2023-06-17T09:20:39.057Z,16.95
2023-06-17T09:23:08.032Z,15.73
2023-06-17T09:25:36.098Z,16.88
2023-06-17T09:28:16.067Z,22.73
2023-06-17T09:30:44.738Z,18.83
2023-06-17T09:33:19.777Z,16.38
2023-06-17T09:35:48.241Z,20.38
2023-06-17T09:38:19.343Z,16.88
2023-06-17T09:40:49.626Z,16.33
2023-06-17T09:43:27.410Z,16.50
2023-06-17T09:45:58.109Z,17.00
2023-06-17T09:48:31.497Z,15.90
2023-06-17T09:50:59.396Z,17.75
2023-06-17T09:53:30.814Z,16.48
2023-06-17T09:56:00.022Z,16.52
2023-06-17T09:58:30.211Z,17.23
2023-06-17T10:00:58.938Z,15.52
2023-06-17T10:03:26.914Z,17.92
2023-06-17T10:05:56.952Z,15.98
2023-06-17T10:08:25.161Z,15.95
2023-06-17T10:10:54.947Z,17.15
2023-06-17T10:13:23.906Z,16.98
2023-06-17T10:15:53.078Z,17.42
2023-06-17T10:18:21.104Z,16.08
2023-06-17T10:20:50.909Z,16.80
2023-06-17T10:23:20.525Z,16.42
2023-06-17T10:25:48.408Z,16.60
2023-06-17T10:28:17.646Z,17.90
2023-06-17T10:30:47.096Z,17.52
2023-06-17T10:33:14.807Z,16.48
2023-06-17T10:35:43.365Z,17.92
2023-06-17T10:38:11.707Z,17.77
2023-06-17T10:40:53.189Z,16.33
2023-06-17T10:43:22.926Z,17.17
2023-06-17T10:45:52.862Z,16.45
2023-06-17T10:48:25.769Z,17.90
2023-06-17T10:50:55.000Z,15.95
2023-06-17T10:53:30.878Z,17.45
2023-06-17T10:55:59.812Z,17.85
2023-06-17T10:58:32.892Z,17.88
2023-06-17T11:01:02.302Z,18.00
2023-06-17T11:03:30.944Z,17.83
2023-06-17T11:06:05.956Z,18.15
2023-06-17T11:08:34.498Z,18.05
2023-06-17T11:11:12.690Z,17.00
2023-06-17T11:13:43.053Z,16.80
2023-06-17T11:16:11.546Z,16.65
2023-06-17T11:18:40.271Z,17.45
2023-06-17T11:21:08.223Z,17.15
2023-06-17T11:23:36.946Z,16.33
2023-06-17T11:26:06.145Z,17.08
2023-06-17T11:28:36.206Z,17.65
2023-06-17T11:31:05.867Z,16.65
2023-06-17T11:33:36.256Z,17.73
2023-06-17T11:36:08.653Z,16.80
2023-06-17T11:38:36.671Z,17.63
2023-06-17T11:41:04.383Z,16.98
2023-06-17T11:43:32.131Z,16.75
2023-06-17T11:45:59.930Z,17.95
2023-06-17T11:48:35.525Z,16.42
2023-06-17T11:51:04.118Z,17.30
2023-06-17T11:53:33.493Z,16.88
2023-06-17T11:56:07.775Z,17.92
2023-06-17T11:58:35.709Z,17.48
2023-06-17T12:01:04.229Z,17.85
2023-06-17T12:03:33.927Z,18.13
2023-06-17T12:06:02.176Z,17.60
2023-06-17T12:08:33.401Z,18.08
2023-06-17T12:11:01.579Z,18.38
2023-06-17T12:13:39.266Z,17.77
2023-06-17T12:16:11.288Z,17.75
2023-06-17T12:18:48.537Z,17.02
2023-06-17T12:21:16.273Z,17.42
2023-06-17T12:23:45.266Z,17.88
2023-06-17T12:26:14.338Z,18.08
2023-06-17T12:28:42.278Z,17.83
2023-06-17T12:31:10.466Z,17.15
2023-06-17T12:33:38.494Z,17.98
2023-06-17T12:36:08.084Z,19.17
2023-06-17T12:38:35.938Z,17.33
2023-06-17T12:41:03.841Z,17.65
2023-06-17T12:43:31.471Z,17.83
2023-06-17T12:46:00.622Z,17.25
2023-06-17T12:48:28.669Z,17.17
2023-06-17T12:50:56.769Z,17.52
2023-06-17T12:53:25.814Z,17.83
2023-06-17T12:55:53.533Z,18.45
2023-06-17T12:58:21.175Z,17.83
2023-06-17T13:00:48.999Z,17.10
2023-06-17T13:03:16.852Z,18.27
2023-06-17T13:05:44.859Z,17.10
2023-06-17T13:08:12.791Z,16.90
2023-06-17T13:10:42.306Z,18.33
2023-06-17T13:13:10.266Z,18.70
2023-06-17T13:15:37.939Z,18.75
2023-06-17T13:18:05.712Z,17.77
2023-06-17T13:20:33.421Z,18.25
2023-06-17T13:23:01.627Z,17.90
2023-06-17T13:25:29.809Z,18.23
2023-06-17T13:27:58.855Z,16.48
2023-06-17T13:30:26.934Z,18.40
2023-06-17T13:32:54.671Z,17.00
2023-06-17T13:35:22.712Z,16.40
2023-06-17T13:37:50.625Z,17.75
2023-06-17T13:40:18.443Z,18.30
2023-06-17T13:42:46.183Z,18.27
2023-06-17T13:45:15.946Z,18.00
2023-06-17T13:47:43.706Z,17.38
2023-06-17T13:50:11.849Z,18.80
2023-06-17T13:52:39.526Z,18.98
2023-06-17T13:55:09.555Z,17.73
2023-06-17T13:57:37.372Z,17.42
2023-06-17T14:00:05.919Z,18.17
2023-06-17T14:02:34.965Z,17.05
2023-06-17T14:05:04.553Z,17.25
2023-06-17T14:07:32.467Z,17.58
2023-06-17T14:10:02.005Z,18.45
2023-06-17T14:12:29.728Z,18.05
2023-06-17T14:14:57.413Z,18.45
2023-06-17T14:17:25.416Z,17.15
2023-06-17T14:19:54.503Z,20.77
2023-06-17T14:22:22.171Z,17.13
2023-06-17T14:24:49.924Z,18.20
2023-06-17T14:27:38.853Z,18.25
2023-06-17T14:30:07.898Z,17.10
2023-06-17T14:32:35.702Z,17.35
2023-06-17T14:35:05.132Z,17.10
2023-06-17T14:37:33.463Z,18.17
2023-06-17T14:40:01.371Z,17.23
2023-06-17T14:42:28.993Z,17.33
2023-06-17T14:44:56.657Z,16.80
2023-06-17T14:47:24.374Z,18.05
2023-06-17T14:49:52.100Z,17.17
2023-06-17T14:52:21.217Z,17.10
2023-06-17T14:54:48.927Z,17.65
2023-06-17T14:57:16.583Z,18.52
2023-06-17T14:59:45.177Z,18.50
2023-06-17T15:02:49.988Z,18.02
2023-06-17T15:05:18.620Z,17.80
2023-06-17T15:07:47.627Z,16.90
2023-06-17T15:10:15.287Z,17.70
2023-06-17T15:12:45.068Z,18.33
2023-06-17T15:15:13.758Z,18.00
2023-06-17T15:17:42.589Z,17.58
2023-06-17T15:20:11.579Z,17.27
2023-06-17T15:22:39.377Z,17.83
2023-06-17T15:25:09.470Z,17.83
2023-06-17T15:27:37.099Z,16.90
2023-06-17T15:30:05.480Z,17.83
2023-06-17T15:32:33.168Z,17.27
2023-06-17T15:35:00.869Z,17.20
2023-06-17T15:37:30.342Z,16.88
2023-06-17T15:39:58.165Z,17.23
2023-06-17T15:42:27.156Z,17.95
2023-06-17T15:44:54.826Z,17.48
2023-06-17T15:47:22.654Z,18.17
2023-06-17T15:49:50.503Z,17.02
2023-06-17T15:52:18.207Z,16.05
2023-06-17T15:54:45.922Z,17.63
2023-06-17T15:57:14.750Z,18.33
2023-06-17T15:59:44.021Z,17.50
2023-06-17T16:02:11.892Z,17.70
2023-06-17T16:04:40.022Z,17.92
2023-06-17T16:07:09.104Z,17.35
2023-06-17T16:09:38.663Z,17.83
2023-06-17T16:12:07.085Z,18.98
2023-06-17T16:14:36.770Z,17.13
2023-06-17T16:17:07.533Z,22.58
2023-06-17T16:19:36.780Z,18.30
2023-06-17T16:22:07.533Z,17.58
2023-06-17T16:24:35.265Z,16.38
2023-06-17T16:27:02.990Z,17.45
2023-06-17T16:29:32.069Z,16.70
2023-06-17T16:31:59.773Z,17.45
2023-06-17T16:34:28.809Z,17.48
2023-06-17T16:36:56.461Z,17.75
2023-06-17T16:39:24.121Z,17.40
2023-06-17T16:41:51.775Z,18.38
2023-06-17T16:44:19.604Z,17.13
2023-06-17T16:46:48.409Z,16.83
2023-06-17T16:49:16.114Z,17.52
2023-06-17T16:51:45.136Z,17.20
2023-06-17T16:54:13.040Z,16.70
2023-06-17T16:56:41.097Z,17.17
2023-06-17T16:59:08.802Z,16.83
2023-06-17T17:01:36.543Z,17.50
2023-06-17T17:04:10.856Z,16.77
2023-06-17T17:06:38.638Z,16.65
2023-06-17T17:09:07.738Z,16.95
2023-06-17T17:11:35.400Z,17.27
2023-06-17T17:14:03.159Z,16.80
2023-06-17T17:16:30.908Z,17.92
2023-06-17T17:18:58.567Z,17.25
2023-06-17T17:21:26.234Z,17.67
2023-06-17T17:23:53.909Z,17.63
2023-06-17T17:26:22.957Z,17.70
2023-06-17T17:28:50.964Z,17.13
2023-06-17T17:31:18.677Z,18.08
2023-06-17T17:33:46.345Z,16.52
2023-06-17T17:36:14.595Z,16.33
2023-06-17T17:38:43.336Z,17.80
2023-06-17T17:41:11.132Z,16.40
2023-06-17T17:43:40.148Z,17.98
2023-06-17T17:46:10.247Z,17.70
2023-06-17T17:48:38.041Z,16.60
2023-06-17T17:51:05.687Z,16.80
2023-06-17T17:53:33.338Z,17.38
2023-06-17T17:56:00.977Z,17.30
2023-06-17T17:58:28.654Z,16.63
2023-06-17T18:01:02.361Z,18.17
2023-06-17T18:03:30.526Z,18.92
2023-06-17T18:05:58.307Z,18.70
2023-06-17T18:08:25.993Z,17.80
2023-06-17T18:10:53.715Z,18.83
2023-06-17T18:13:21.367Z,20.02
2023-06-17T18:15:49.032Z,18.73
2023-06-17T18:18:18.363Z,18.27
2023-06-17T18:20:45.999Z,18.38
2023-06-17T18:23:13.677Z,17.52
2023-06-17T18:25:41.297Z,18.33
2023-06-17T18:28:09.010Z,18.23
2023-06-17T18:30:36.642Z,19.10
2023-06-17T18:33:04.458Z,18.55
2023-06-17T18:35:33.504Z,18.95
2023-06-17T18:38:01.544Z,17.90
2023-06-17T18:40:29.142Z,18.38
2023-06-17T18:42:56.820Z,18.30
2023-06-17T18:45:24.472Z,17.35
2023-06-17T18:47:52.177Z,16.63
2023-06-17T18:50:20.123Z,17.48
2023-06-17T18:52:49.478Z,18.15
2023-06-17T18:55:17.180Z,19.15
2023-06-17T18:57:44.924Z,20.10
2023-06-17T19:00:13.278Z,17.88
2023-06-17T19:02:40.981Z,20.27
2023-06-17T19:05:09.509Z,18.75
2023-06-17T19:07:38.411Z,19.90
2023-06-17T19:10:08.568Z,20.10
2023-06-17T19:12:36.255Z,18.25
2023-06-17T19:15:04.174Z,17.52
2023-06-17T19:17:32.115Z,17.90
2023-06-17T19:19:59.782Z,18.85
2023-06-17T19:22:28.413Z,17.88
2023-06-17T19:24:58.478Z,18.83
2023-06-17T19:27:27.817Z,19.02
2023-06-17T19:29:58.907Z,17.98
2023-06-17T19:32:26.749Z,17.47
2023-06-17T19:34:57.385Z,17.90
2023-06-17T19:37:25.121Z,18.38
2023-06-17T19:39:52.750Z,17.73
2023-06-17T19:42:20.511Z,18.30
2023-06-17T19:44:56.979Z,19.90
2023-06-17T19:47:25.823Z,19.15
2023-06-17T19:49:53.994Z,19.45
2023-06-17T19:52:21.854Z,18.23
2023-06-17T19:54:49.607Z,17.98
2023-06-17T19:57:17.297Z,17.48
2023-06-17T19:59:44.992Z,18.33
2023-06-17T20:02:15.246Z,16.63
2023-06-17T20:04:42.890Z,17.90
2023-06-17T20:07:10.715Z,17.33
2023-06-17T20:09:38.316Z,17.38
2023-06-17T20:12:07.113Z,17.52
2023-06-17T20:14:34.862Z,17.23
2023-06-17T20:17:03.066Z,17.13
2023-06-17T20:19:32.160Z,17.25
2023-06-17T20:21:59.844Z,17.33
2023-06-17T20:24:27.491Z,16.65
2023-06-17T20:26:56.581Z,17.77
2023-06-17T20:29:25.820Z,17.80
2023-06-17T20:31:53.460Z,18.27
2023-06-17T20:34:23.356Z,17.42
2023-06-17T20:36:53.533Z,17.35
2023-06-17T20:39:21.281Z,18.42
2023-06-17T20:41:48.974Z,20.50
2023-06-17T20:44:16.957Z,17.48
2023-06-17T20:46:44.770Z,18.15
2023-06-17T20:49:12.404Z,17.83
2023-06-17T20:51:40.168Z,17.38
2023-06-17T20:54:09.182Z,17.98
2023-06-17T20:56:38.086Z,16.75
2023-06-17T20:59:05.747Z,17.38
2023-06-17T21:01:33.412Z,16.58
2023-06-17T21:04:01.060Z,17.65
2023-06-17T21:06:29.121Z,16.98
2023-06-17T21:08:57.461Z,18.05
2023-06-17T21:11:26.517Z,16.92
2023-06-17T21:13:54.163Z,16.83
2023-06-17T21:16:21.870Z,16.90
2023-06-17T21:18:49.543Z,17.50
2023-06-17T21:21:17.207Z,16.85
2023-06-17T21:23:44.835Z,17.02
2023-06-17T21:26:12.488Z,18.70
2023-06-17T21:28:41.584Z,17.65
2023-06-17T21:31:09.238Z,18.25
2023-06-17T21:33:36.867Z,18.80
2023-06-17T21:36:04.836Z,19.15
2023-06-17T21:38:32.455Z,19.65
2023-06-17T21:41:00.115Z,18.45
2023-06-17T21:43:33.065Z,18.58
2023-06-17T21:46:02.446Z,18.48
2023-06-17T21:48:32.791Z,17.67
2023-06-17T21:51:00.687Z,17.95
2023-06-17T21:53:28.310Z,19.42
2023-06-17T21:55:56.004Z,18.75
2023-06-17T21:58:23.672Z,19.13
2023-06-17T22:00:51.598Z,19.52
2023-06-17T22:03:23.852Z,19.02
2023-06-17T22:05:51.902Z,18.73
2023-06-17T22:08:24.569Z,19.40
2023-06-17T22:10:55.341Z,18.98
2023-06-17T22:13:22.976Z,19.77
2023-06-17T22:15:50.631Z,19.63
2023-06-17T22:18:19.729Z,19.77
2023-06-17T22:20:47.813Z,19.33
2023-06-17T22:23:15.464Z,19.05
2023-06-17T22:25:43.311Z,19.02
2023-06-17T22:28:11.021Z,19.77
2023-06-17T22:30:40.415Z,18.83
2023-06-17T22:33:08.403Z,19.48
2023-06-17T22:35:37.490Z,19.58
2023-06-17T22:38:05.123Z,19.20
2023-06-17T22:40:32.802Z,19.02
2023-06-17T22:43:00.537Z,19.33
2023-06-17T22:45:28.189Z,19.23
2023-06-17T22:47:56.142Z,18.60
2023-06-17T22:50:24.458Z,18.70
2023-06-17T22:52:53.676Z,19.02
2023-06-17T22:55:22.565Z,19.30
2023-06-17T22:57:50.552Z,18.05
2023-06-17T23:00:18.908Z,18.85
2023-06-17T23:02:48.018Z,18.95
2023-06-17T23:05:16.104Z,19.40
2023-06-17T23:07:44.215Z,18.75
2023-06-17T23:10:13.300Z,19.08
2023-06-17T23:12:40.969Z,18.95
2023-06-17T23:15:09.398Z,17.98
2023-06-17T23:17:37.073Z,17.98
2023-06-17T23:20:05.537Z,18.45
2023-06-17T23:22:34.702Z,17.55
2023-06-17T23:25:07.169Z,16.90
2023-06-17T23:27:37.024Z,16.75
2023-06-17T23:30:05.198Z,18.00
2023-06-17T23:32:32.835Z,17.00
2023-06-17T23:35:00.631Z,17.25
2023-06-17T23:37:28.808Z,17.00
2023-06-17T23:39:56.495Z,16.88
2023-06-17T23:42:24.122Z,17.05
2023-06-17T23:44:53.243Z,16.48
2023-06-17T23:47:21.380Z,16.38
2023-06-17T23:49:49.128Z,16.98
2023-06-17T23:52:16.732Z,17.25
2023-06-17T23:54:44.392Z,17.27
2023-06-17T23:57:12.067Z,17.33
2023-06-17T23:59:39.728Z,17.67
